sensor_id;sensor_type;location;lat;lon;timestamp;P1;durP1;ratioP1;P2;durP2;ratioP2
53411;SDS011;39307;52.870;13.660;2024-02-15T00:00:21;1.88;;;1.10;;
53411;SDS011;39307;52.870;13.660;2024-02-15T00:02:48;1.70;;;1.20;;
53411;SDS011;39307;52.870;13.660;2024-02-15T00:05:15;1.67;;;1.10;;
53411;SDS011;39307;52.870;13.660;2024-02-15T00:07:41;1.42;;;1.10;;
53411;SDS011;39307;52.870;13.660;2024-02-15T00:10:08;1.80;;;1.30;;
53411;SDS011;39307;52.870;13.660;2024-02-15T00:12:36;1.65;;;1.10;;
53411;SDS011;39307;52.870;13.660;2024-02-15T00:15:03;1.73;;;1.10;;
53411;SDS011;39307;52.870;13.660;2024-02-15T00:17:30;1.50;;;1.10;;
53411;SDS011;39307;52.870;13.660;2024-02-15T00:19:59;1.70;;;1.00;;
53411;SDS011;39307;52.870;13.660;2024-02-15T00:22:25;1.80;;;1.10;;
53411;SDS011;39307;52.870;13.660;2024-02-15T00:24:52;2.03;;;1.20;;
53411;SDS011;39307;52.870;13.660;2024-02-15T00:27:19;1.58;;;1.10;;
53411;SDS011;39307;52.870;13.660;2024-02-15T00:29:46;1.73;;;1.20;;
53411;SDS011;39307;52.870;13.660;2024-02-15T00:32:13;1.80;;;1.20;;
53411;SDS011;39307;52.870;13.660;2024-02-15T00:34:40;1.92;;;1.20;;
53411;SDS011;39307;52.870;13.660;2024-02-15T00:37:06;1.55;;;1.10;;
53411;SDS011;39307;52.870;13.660;2024-02-15T00:39:33;1.90;;;1.17;;
53411;SDS011;39307;52.870;13.660;2024-02-15T00:42:00;1.60;;;1.05;;
53411;SDS011;39307;52.870;13.660;2024-02-15T00:44:27;1.85;;;1.23;;
53411;SDS011;39307;52.870;13.660;2024-02-15T00:46:54;1.80;;;1.10;;
53411;SDS011;39307;52.870;13.660;2024-02-15T00:49:21;1.80;;;1.05;;
53411;SDS011;39307;52.870;13.660;2024-02-15T00:51:47;1.70;;;1.10;;
53411;SDS011;39307;52.870;13.660;2024-02-15T00:54:14;1.77;;;1.05;;
53411;SDS011;39307;52.870;13.660;2024-02-15T00:56:41;1.80;;;1.20;;
53411;SDS011;39307;52.870;13.660;2024-02-15T00:59:11;1.50;;;0.98;;
53411;SDS011;39307;52.870;13.660;2024-02-15T01:01:37;1.38;;;1.02;;
53411;SDS011;39307;52.870;13.660;2024-02-15T01:04:04;1.95;;;1.20;;
53411;SDS011;39307;52.870;13.660;2024-02-15T01:06:31;1.48;;;1.10;;
53411;SDS011;39307;52.870;13.660;2024-02-15T01:08:59;1.50;;;1.10;;
53411;SDS011;39307;52.870;13.660;2024-02-15T01:11:26;1.67;;;1.17;;
53411;SDS011;39307;52.870;13.660;2024-02-15T01:13:53;1.63;;;1.10;;
53411;SDS011;39307;52.870;13.660;2024-02-15T01:16:20;1.92;;;1.20;;
53411;SDS011;39307;52.870;13.660;2024-02-15T01:18:48;1.70;;;1.15;;
53411;SDS011;39307;52.870;13.660;2024-02-15T01:21:15;1.30;;;0.93;;
53411;SDS011;39307;52.870;13.660;2024-02-15T01:23:42;1.55;;;1.10;;
53411;SDS011;39307;52.870;13.660;2024-02-15T01:26:09;1.70;;;1.15;;
53411;SDS011;39307;52.870;13.660;2024-02-15T01:28:36;1.42;;;1.10;;
53411;SDS011;39307;52.870;13.660;2024-02-15T01:31:03;1.45;;;0.98;;
53411;SDS011;39307;52.870;13.660;2024-02-15T01:33:29;1.57;;;1.10;;
53411;SDS011;39307;52.870;13.660;2024-02-15T01:35:56;1.70;;;1.10;;
53411;SDS011;39307;52.870;13.660;2024-02-15T01:38:23;1.40;;;1.05;;
53411;SDS011;39307;52.870;13.660;2024-02-15T01:40:50;1.77;;;1.20;;
53411;SDS011;39307;52.870;13.660;2024-02-15T01:43:17;2.13;;;1.10;;
53411;SDS011;39307;52.870;13.660;2024-02-15T01:45:43;1.50;;;1.10;;
53411;SDS011;39307;52.870;13.660;2024-02-15T01:48:10;1.58;;;1.10;;
53411;SDS011;39307;52.870;13.660;2024-02-15T01:50:37;2.13;;;1.20;;
53411;SDS011;39307;52.870;13.660;2024-02-15T01:53:04;1.70;;;1.15;;
53411;SDS011;39307;52.870;13.660;2024-02-15T01:55:35;1.48;;;1.10;;
53411;SDS011;39307;52.870;13.660;2024-02-15T01:58:03;1.77;;;1.15;;
53411;SDS011;39307;52.870;13.660;2024-02-15T02:00:30;1.60;;;1.10;;
53411;SDS011;39307;52.870;13.660;2024-02-15T02:02:57;1.52;;;1.02;;
53411;SDS011;39307;52.870;13.660;2024-02-15T02:05:26;1.65;;;1.05;;
53411;SDS011;39307;52.870;13.660;2024-02-15T02:07:53;1.67;;;1.00;;
53411;SDS011;39307;52.870;13.660;2024-02-15T02:10:20;1.70;;;1.10;;
53411;SDS011;39307;52.870;13.660;2024-02-15T02:12:47;1.60;;;1.10;;
53411;SDS011;39307;52.870;13.660;2024-02-15T02:15:14;1.73;;;1.10;;
53411;SDS011;39307;52.870;13.660;2024-02-15T02:17:41;1.98;;;1.20;;
53411;SDS011;39307;52.870;13.660;2024-02-15T02:20:08;1.60;;;1.00;;
53411;SDS011;39307;52.870;13.660;2024-02-15T02:22:35;1.35;;;0.93;;
53411;SDS011;39307;52.870;13.660;2024-02-15T02:25:06;1.55;;;1.08;;
53411;SDS011;39307;52.870;13.660;2024-02-15T02:27:34;2.08;;;1.20;;
53411;SDS011;39307;52.870;13.660;2024-02-15T02:30:05;1.48;;;1.00;;
53411;SDS011;39307;52.870;13.660;2024-02-15T02:32:42;1.50;;;1.10;;
53411;SDS011;39307;52.870;13.660;2024-02-15T02:35:10;1.58;;;1.10;;
53411;SDS011;39307;52.870;13.660;2024-02-15T02:37:37;1.50;;;1.10;;
53411;SDS011;39307;52.870;13.660;2024-02-15T02:40:05;1.60;;;0.93;;
53411;SDS011;39307;52.870;13.660;2024-02-15T02:42:33;1.65;;;0.98;;
53411;SDS011;39307;52.870;13.660;2024-02-15T02:45:02;1.58;;;1.05;;
53411;SDS011;39307;52.870;13.660;2024-02-15T02:47:30;1.33;;;0.90;;
53411;SDS011;39307;52.870;13.660;2024-02-15T02:49:56;1.40;;;1.10;;
53411;SDS011;39307;52.870;13.660;2024-02-15T02:52:23;2.08;;;1.10;;
53411;SDS011;39307;52.870;13.660;2024-02-15T02:54:50;1.70;;;1.10;;
53411;SDS011;39307;52.870;13.660;2024-02-15T02:57:17;1.30;;;0.90;;
53411;SDS011;39307;52.870;13.660;2024-02-15T02:59:44;1.40;;;1.00;;
53411;SDS011;39307;52.870;13.660;2024-02-15T03:02:11;1.90;;;1.17;;
53411;SDS011;39307;52.870;13.660;2024-02-15T03:04:38;1.20;;;1.00;;
53411;SDS011;39307;52.870;13.660;2024-02-15T03:07:05;1.60;;;1.10;;
53411;SDS011;39307;52.870;13.660;2024-02-15T03:09:32;1.55;;;1.00;;
53411;SDS011;39307;52.870;13.660;2024-02-15T03:11:58;1.35;;;0.95;;
53411;SDS011;39307;52.870;13.660;2024-02-15T03:14:25;1.67;;;0.90;;
53411;SDS011;39307;52.870;13.660;2024-02-15T03:16:52;1.80;;;1.10;;
53411;SDS011;39307;52.870;13.660;2024-02-15T03:19:21;1.65;;;1.00;;
53411;SDS011;39307;52.870;13.660;2024-02-15T03:21:48;1.23;;;0.90;;
53411;SDS011;39307;52.870;13.660;2024-02-15T03:24:15;1.90;;;1.30;;
53411;SDS011;39307;52.870;13.660;2024-02-15T03:26:42;1.60;;;1.00;;
53411;SDS011;39307;52.870;13.660;2024-02-15T03:29:09;1.88;;;1.17;;
53411;SDS011;39307;52.870;13.660;2024-02-15T03:31:35;1.65;;;1.10;;
53411;SDS011;39307;52.870;13.660;2024-02-15T03:34:03;1.30;;;0.85;;
53411;SDS011;39307;52.870;13.660;2024-02-15T03:36:30;1.30;;;0.93;;
53411;SDS011;39307;52.870;13.660;2024-02-15T03:38:57;1.40;;;0.98;;
53411;SDS011;39307;52.870;13.660;2024-02-15T03:41:26;1.60;;;1.10;;
53411;SDS011;39307;52.870;13.660;2024-02-15T03:43:54;1.23;;;0.95;;
53411;SDS011;39307;52.870;13.660;2024-02-15T03:46:20;1.13;;;0.80;;
53411;SDS011;39307;52.870;13.660;2024-02-15T03:48:47;1.45;;;1.08;;
53411;SDS011;39307;52.870;13.660;2024-02-15T03:51:17;1.80;;;1.00;;
53411;SDS011;39307;52.870;13.660;2024-02-15T03:53:44;1.60;;;1.10;;
53411;SDS011;39307;52.870;13.660;2024-02-15T03:56:11;1.35;;;0.93;;
53411;SDS011;39307;52.870;13.660;2024-02-15T03:58:38;1.33;;;0.97;;
53411;SDS011;39307;52.870;13.660;2024-02-15T04:01:05;1.73;;;1.00;;
53411;SDS011;39307;52.870;13.660;2024-02-15T04:03:32;1.27;;;1.00;;
53411;SDS011;39307;52.870;13.660;2024-02-15T04:05:59;1.38;;;0.90;;
53411;SDS011;39307;52.870;13.660;2024-02-15T04:08:26;1.50;;;1.03;;
53411;SDS011;39307;52.870;13.660;2024-02-15T04:10:53;1.30;;;0.95;;
53411;SDS011;39307;52.870;13.660;2024-02-15T04:13:20;1.52;;;0.93;;
53411;SDS011;39307;52.870;13.660;2024-02-15T04:15:47;1.85;;;1.00;;
53411;SDS011;39307;52.870;13.660;2024-02-15T04:18:13;1.67;;;1.00;;
53411;SDS011;39307;52.870;13.660;2024-02-15T04:20:40;1.27;;;0.93;;
53411;SDS011;39307;52.870;13.660;2024-02-15T04:23:09;1.17;;;0.82;;
53411;SDS011;39307;52.870;13.660;2024-02-15T04:25:36;1.20;;;0.90;;
53411;SDS011;39307;52.870;13.660;2024-02-15T04:28:03;1.10;;;0.90;;
53411;SDS011;39307;52.870;13.660;2024-02-15T04:30:30;1.53;;;1.00;;
53411;SDS011;39307;52.870;13.660;2024-02-15T04:32:57;1.15;;;0.95;;
53411;SDS011;39307;52.870;13.660;2024-02-15T04:35:24;1.35;;;0.93;;
53411;SDS011;39307;52.870;13.660;2024-02-15T04:37:51;1.10;;;0.80;;
53411;SDS011;39307;52.870;13.660;2024-02-15T04:40:18;1.30;;;0.90;;
53411;SDS011;39307;52.870;13.660;2024-02-15T04:42:45;1.17;;;0.80;;
53411;SDS011;39307;52.870;13.660;2024-02-15T04:45:12;1.38;;;1.00;;
53411;SDS011;39307;52.870;13.660;2024-02-15T04:47:39;1.10;;;0.90;;
53411;SDS011;39307;52.870;13.660;2024-02-15T04:50:07;1.80;;;0.93;;
53411;SDS011;39307;52.870;13.660;2024-02-15T04:52:35;1.27;;;0.95;;
53411;SDS011;39307;52.870;13.660;2024-02-15T04:55:02;1.20;;;0.80;;
53411;SDS011;39307;52.870;13.660;2024-02-15T04:57:30;1.55;;;0.88;;
53411;SDS011;39307;52.870;13.660;2024-02-15T04:59:57;1.33;;;0.90;;
53411;SDS011;39307;52.870;13.660;2024-02-15T05:02:24;1.15;;;0.90;;
53411;SDS011;39307;52.870;13.660;2024-02-15T05:04:51;1.15;;;0.88;;
53411;SDS011;39307;52.870;13.660;2024-02-15T05:07:17;1.48;;;0.93;;
53411;SDS011;39307;52.870;13.660;2024-02-15T05:09:44;1.23;;;1.00;;
53411;SDS011;39307;52.870;13.660;2024-02-15T05:12:11;0.95;;;0.75;;
53411;SDS011;39307;52.870;13.660;2024-02-15T05:14:49;1.05;;;0.80;;
53411;SDS011;39307;52.870;13.660;2024-02-15T05:17:16;1.20;;;0.90;;
53411;SDS011;39307;52.870;13.660;2024-02-15T05:19:43;1.10;;;0.75;;
53411;SDS011;39307;52.870;13.660;2024-02-15T05:22:10;1.27;;;0.90;;
53411;SDS011;39307;52.870;13.660;2024-02-15T05:24:37;0.95;;;0.80;;
53411;SDS011;39307;52.870;13.660;2024-02-15T05:27:04;1.10;;;0.80;;
53411;SDS011;39307;52.870;13.660;2024-02-15T05:29:31;1.57;;;0.80;;
53411;SDS011;39307;52.870;13.660;2024-02-15T05:31:58;1.10;;;0.80;;
53411;SDS011;39307;52.870;13.660;2024-02-15T05:34:25;1.20;;;0.82;;
53411;SDS011;39307;52.870;13.660;2024-02-15T05:36:52;1.15;;;0.80;;
53411;SDS011;39307;52.870;13.660;2024-02-15T05:39:19;1.10;;;0.80;;
53411;SDS011;39307;52.870;13.660;2024-02-15T05:41:46;1.30;;;0.85;;
53411;SDS011;39307;52.870;13.660;2024-02-15T05:44:12;1.40;;;1.00;;
53411;SDS011;39307;52.870;13.660;2024-02-15T05:46:39;1.35;;;0.93;;
53411;SDS011;39307;52.870;13.660;2024-02-15T05:49:06;1.00;;;0.77;;
53411;SDS011;39307;52.870;13.660;2024-02-15T05:51:33;1.25;;;0.80;;
53411;SDS011;39307;52.870;13.660;2024-02-15T05:54:00;0.93;;;0.75;;
53411;SDS011;39307;52.870;13.660;2024-02-15T05:56:27;1.00;;;0.80;;
53411;SDS011;39307;52.870;13.660;2024-02-15T05:58:54;1.50;;;0.90;;
53411;SDS011;39307;52.870;13.660;2024-02-15T06:01:20;1.15;;;0.90;;
53411;SDS011;39307;52.870;13.660;2024-02-15T06:03:48;1.35;;;0.90;;
53411;SDS011;39307;52.870;13.660;2024-02-15T06:06:15;0.90;;;0.80;;
53411;SDS011;39307;52.870;13.660;2024-02-15T06:08:42;1.35;;;1.00;;
53411;SDS011;39307;52.870;13.660;2024-02-15T06:11:13;1.20;;;0.80;;
53411;SDS011;39307;52.870;13.660;2024-02-15T06:13:45;1.30;;;0.88;;
53411;SDS011;39307;52.870;13.660;2024-02-15T06:16:11;1.33;;;0.90;;
53411;SDS011;39307;52.870;13.660;2024-02-15T06:18:38;1.23;;;0.80;;
53411;SDS011;39307;52.870;13.660;2024-02-15T06:21:05;1.30;;;0.90;;
53411;SDS011;39307;52.870;13.660;2024-02-15T06:23:32;1.20;;;0.82;;
53411;SDS011;39307;52.870;13.660;2024-02-15T06:25:59;1.13;;;0.80;;
53411;SDS011;39307;52.870;13.660;2024-02-15T06:28:26;1.20;;;0.80;;
53411;SDS011;39307;52.870;13.660;2024-02-15T06:30:53;1.35;;;0.95;;
53411;SDS011;39307;52.870;13.660;2024-02-15T06:33:20;1.33;;;0.90;;
53411;SDS011;39307;52.870;13.660;2024-02-15T06:35:47;1.00;;;0.70;;
53411;SDS011;39307;52.870;13.660;2024-02-15T06:38:13;1.00;;;0.80;;
53411;SDS011;39307;52.870;13.660;2024-02-15T06:40:40;1.05;;;0.85;;
53411;SDS011;39307;52.870;13.660;2024-02-15T06:43:07;1.00;;;0.70;;
53411;SDS011;39307;52.870;13.660;2024-02-15T06:45:34;1.10;;;0.73;;
53411;SDS011;39307;52.870;13.660;2024-02-15T06:48:01;1.00;;;0.75;;
53411;SDS011;39307;52.870;13.660;2024-02-15T06:50:28;1.38;;;0.82;;
53411;SDS011;39307;52.870;13.660;2024-02-15T06:52:55;1.00;;;0.80;;
53411;SDS011;39307;52.870;13.660;2024-02-15T06:55:22;1.30;;;0.80;;
53411;SDS011;39307;52.870;13.660;2024-02-15T06:57:49;1.13;;;0.80;;
53411;SDS011;39307;52.870;13.660;2024-02-15T07:00:16;2.90;;;0.70;;
53411;SDS011;39307;52.870;13.660;2024-02-15T07:02:43;0.90;;;0.68;;
53411;SDS011;39307;52.870;13.660;2024-02-15T07:05:10;0.83;;;0.70;;
53411;SDS011;39307;52.870;13.660;2024-02-15T07:07:36;1.10;;;0.80;;
53411;SDS011;39307;52.870;13.660;2024-02-15T07:10:03;1.05;;;0.88;;
53411;SDS011;39307;52.870;13.660;2024-02-15T07:12:31;1.20;;;0.80;;
53411;SDS011;39307;52.870;13.660;2024-02-15T07:14:58;0.93;;;0.80;;
53411;SDS011;39307;52.870;13.660;2024-02-15T07:17:24;0.90;;;0.70;;
53411;SDS011;39307;52.870;13.660;2024-02-15T07:19:51;0.90;;;0.73;;
53411;SDS011;39307;52.870;13.660;2024-02-15T07:22:18;1.00;;;0.70;;
53411;SDS011;39307;52.870;13.660;2024-02-15T07:24:45;0.98;;;0.70;;
53411;SDS011;39307;52.870;13.660;2024-02-15T07:27:12;0.95;;;0.75;;
53411;SDS011;39307;52.870;13.660;2024-02-15T07:29:38;1.15;;;0.80;;
53411;SDS011;39307;52.870;13.660;2024-02-15T07:32:06;1.15;;;0.77;;
53411;SDS011;39307;52.870;13.660;2024-02-15T07:34:33;0.88;;;0.60;;
53411;SDS011;39307;52.870;13.660;2024-02-15T07:37:02;0.80;;;0.70;;
53411;SDS011;39307;52.870;13.660;2024-02-15T07:39:29;1.23;;;0.88;;
53411;SDS011;39307;52.870;13.660;2024-02-15T07:41:55;1.17;;;0.70;;
53411;SDS011;39307;52.870;13.660;2024-02-15T07:44:22;0.73;;;0.60;;
53411;SDS011;39307;52.870;13.660;2024-02-15T07:46:50;1.00;;;0.80;;
53411;SDS011;39307;52.870;13.660;2024-02-15T07:49:17;0.90;;;0.70;;
53411;SDS011;39307;52.870;13.660;2024-02-15T07:51:43;1.13;;;0.80;;
53411;SDS011;39307;52.870;13.660;2024-02-15T07:54:10;1.30;;;0.80;;
53411;SDS011;39307;52.870;13.660;2024-02-15T07:56:37;0.85;;;0.63;;
53411;SDS011;39307;52.870;13.660;2024-02-15T07:59:04;1.27;;;0.83;;
53411;SDS011;39307;52.870;13.660;2024-02-15T08:01:31;1.17;;;0.80;;
53411;SDS011;39307;52.870;13.660;2024-02-15T08:03:58;0.75;;;0.60;;
53411;SDS011;39307;52.870;13.660;2024-02-15T08:06:25;0.90;;;0.70;;
53411;SDS011;39307;52.870;13.660;2024-02-15T08:08:52;0.88;;;0.70;;
53411;SDS011;39307;52.870;13.660;2024-02-15T08:11:19;1.00;;;0.80;;
53411;SDS011;39307;52.870;13.660;2024-02-15T08:13:46;0.90;;;0.68;;
53411;SDS011;39307;52.870;13.660;2024-02-15T08:16:14;0.77;;;0.60;;
53411;SDS011;39307;52.870;13.660;2024-02-15T08:18:45;1.20;;;0.90;;
53411;SDS011;39307;52.870;13.660;2024-02-15T08:21:12;1.17;;;0.70;;
53411;SDS011;39307;52.870;13.660;2024-02-15T08:23:38;1.00;;;0.73;;
53411;SDS011;39307;52.870;13.660;2024-02-15T08:26:06;1.10;;;0.90;;
53411;SDS011;39307;52.870;13.660;2024-02-15T08:28:32;0.90;;;0.60;;
53411;SDS011;39307;52.870;13.660;2024-02-15T08:30:59;1.08;;;0.70;;
53411;SDS011;39307;52.870;13.660;2024-02-15T08:33:26;0.90;;;0.80;;
53411;SDS011;39307;52.870;13.660;2024-02-15T08:35:53;1.10;;;0.80;;
53411;SDS011;39307;52.870;13.660;2024-02-15T08:38:20;0.95;;;0.70;;
53411;SDS011;39307;52.870;13.660;2024-02-15T08:40:50;1.10;;;0.80;;
53411;SDS011;39307;52.870;13.660;2024-02-15T08:43:16;0.80;;;0.60;;
53411;SDS011;39307;52.870;13.660;2024-02-15T08:45:43;1.00;;;0.70;;
53411;SDS011;39307;52.870;13.660;2024-02-15T08:48:10;0.80;;;0.60;;
53411;SDS011;39307;52.870;13.660;2024-02-15T08:50:38;1.02;;;0.80;;
53411;SDS011;39307;52.870;13.660;2024-02-15T08:53:05;0.90;;;0.70;;
53411;SDS011;39307;52.870;13.660;2024-02-15T08:55:32;0.88;;;0.70;;
53411;SDS011;39307;52.870;13.660;2024-02-15T08:57:59;1.00;;;0.70;;
53411;SDS011;39307;52.870;13.660;2024-02-15T09:00:26;1.27;;;0.80;;
53411;SDS011;39307;52.870;13.660;2024-02-15T09:02:52;0.80;;;0.60;;
53411;SDS011;39307;52.870;13.660;2024-02-15T09:05:19;1.00;;;0.70;;
53411;SDS011;39307;52.870;13.660;2024-02-15T09:07:46;0.73;;;0.70;;
53411;SDS011;39307;52.870;13.660;2024-02-15T09:10:16;1.05;;;0.80;;
53411;SDS011;39307;52.870;13.660;2024-02-15T09:12:44;1.08;;;0.70;;
53411;SDS011;39307;52.870;13.660;2024-02-15T09:15:11;0.70;;;0.53;;
53411;SDS011;39307;52.870;13.660;2024-02-15T09:17:38;1.00;;;0.77;;
53411;SDS011;39307;52.870;13.660;2024-02-15T09:20:09;0.80;;;0.70;;
53411;SDS011;39307;52.870;13.660;2024-02-15T09:22:38;0.80;;;0.60;;
53411;SDS011;39307;52.870;13.660;2024-02-15T09:25:08;0.65;;;0.57;;
53411;SDS011;39307;52.870;13.660;2024-02-15T09:27:36;0.73;;;0.67;;
53411;SDS011;39307;52.870;13.660;2024-02-15T09:30:03;1.00;;;0.70;;
53411;SDS011;39307;52.870;13.660;2024-02-15T09:32:30;0.60;;;0.60;;
53411;SDS011;39307;52.870;13.660;2024-02-15T09:34:57;1.27;;;0.80;;
53411;SDS011;39307;52.870;13.660;2024-02-15T09:37:24;1.05;;;0.75;;
53411;SDS011;39307;52.870;13.660;2024-02-15T09:39:50;0.80;;;0.60;;
53411;SDS011;39307;52.870;13.660;2024-02-15T09:42:16;0.75;;;0.60;;
53411;SDS011;39307;52.870;13.660;2024-02-15T09:44:43;0.93;;;0.73;;
53411;SDS011;39307;52.870;13.660;2024-02-15T09:47:10;1.47;;;0.90;;
53411;SDS011;39307;52.870;13.660;2024-02-15T09:49:38;0.98;;;0.70;;
53411;SDS011;39307;52.870;13.660;2024-02-15T09:52:09;0.90;;;0.60;;
53411;SDS011;39307;52.870;13.660;2024-02-15T09:54:36;0.70;;;0.60;;
53411;SDS011;39307;52.870;13.660;2024-02-15T09:57:06;0.90;;;0.70;;
53411;SDS011;39307;52.870;13.660;2024-02-15T09:59:33;0.88;;;0.70;;
53411;SDS011;39307;52.870;13.660;2024-02-15T10:02:00;1.50;;;0.80;;
53411;SDS011;39307;52.870;13.660;2024-02-15T10:04:27;1.27;;;0.70;;
53411;SDS011;39307;52.870;13.660;2024-02-15T10:06:54;0.98;;;0.70;;
53411;SDS011;39307;52.870;13.660;2024-02-15T10:09:24;1.05;;;0.75;;
53411;SDS011;39307;52.870;13.660;2024-02-15T10:11:54;0.95;;;0.60;;
53411;SDS011;39307;52.870;13.660;2024-02-15T10:14:29;0.90;;;0.70;;
53411;SDS011;39307;52.870;13.660;2024-02-15T10:16:57;0.85;;;0.70;;
53411;SDS011;39307;52.870;13.660;2024-02-15T10:19:33;1.10;;;0.73;;
53411;SDS011;39307;52.870;13.660;2024-02-15T10:22:10;0.80;;;0.63;;
53411;SDS011;39307;52.870;13.660;2024-02-15T10:24:37;0.70;;;0.60;;
53411;SDS011;39307;52.870;13.660;2024-02-15T10:27:04;0.88;;;0.70;;
53411;SDS011;39307;52.870;13.660;2024-02-15T10:29:32;1.60;;;0.80;;
53411;SDS011;39307;52.870;13.660;2024-02-15T10:32:00;0.90;;;0.60;;
53411;SDS011;39307;52.870;13.660;2024-02-15T10:34:28;0.98;;;0.70;;
53411;SDS011;39307;52.870;13.660;2024-02-15T10:37:13;0.77;;;0.60;;
53411;SDS011;39307;52.870;13.660;2024-02-15T10:39:41;0.80;;;0.60;;
53411;SDS011;39307;52.870;13.660;2024-02-15T10:42:08;1.05;;;0.60;;
53411;SDS011;39307;52.870;13.660;2024-02-15T10:44:35;0.70;;;0.70;;
53411;SDS011;39307;52.870;13.660;2024-02-15T10:47:03;0.88;;;0.60;;
53411;SDS011;39307;52.870;13.660;2024-02-15T10:49:30;0.80;;;0.60;;
53411;SDS011;39307;52.870;13.660;2024-02-15T10:51:58;1.00;;;0.70;;
53411;SDS011;39307;52.870;13.660;2024-02-15T10:54:40;1.00;;;0.68;;
53411;SDS011;39307;52.870;13.660;2024-02-15T10:57:13;1.00;;;0.70;;
53411;SDS011;39307;52.870;13.660;2024-02-15T11:02:28;1.00;;;0.70;;
53411;SDS011;39307;52.870;13.660;2024-02-15T11:05:03;1.00;;;0.70;;
53411;SDS011;39307;52.870;13.660;2024-02-15T11:07:33;0.80;;;0.70;;
53411;SDS011;39307;52.870;13.660;2024-02-15T11:10:00;0.70;;;0.60;;
53411;SDS011;39307;52.870;13.660;2024-02-15T11:12:29;1.08;;;0.77;;
53411;SDS011;39307;52.870;13.660;2024-02-15T11:14:56;0.98;;;0.77;;
53411;SDS011;39307;52.870;13.660;2024-02-15T11:20:06;1.00;;;0.80;;
53411;SDS011;39307;52.870;13.660;2024-02-15T11:22:33;1.00;;;0.70;;
53411;SDS011;39307;52.870;13.660;2024-02-15T11:25:00;0.73;;;0.60;;
53411;SDS011;39307;52.870;13.660;2024-02-15T11:27:29;1.13;;;0.73;;
53411;SDS011;39307;52.870;13.660;2024-02-15T11:29:56;1.10;;;0.70;;
53411;SDS011;39307;52.870;13.660;2024-02-15T11:32:41;1.10;;;0.70;;
53411;SDS011;39307;52.870;13.660;2024-02-15T11:35:10;1.00;;;0.80;;
53411;SDS011;39307;52.870;13.660;2024-02-15T11:37:50;1.17;;;0.70;;
53411;SDS011;39307;52.870;13.660;2024-02-15T11:40:22;0.90;;;0.70;;
53411;SDS011;39307;52.870;13.660;2024-02-15T11:42:49;1.03;;;0.60;;
53411;SDS011;39307;52.870;13.660;2024-02-15T11:45:28;0.90;;;0.68;;
53411;SDS011;39307;52.870;13.660;2024-02-15T11:47:55;1.20;;;0.70;;
53411;SDS011;39307;52.870;13.660;2024-02-15T11:50:22;1.10;;;0.70;;
53411;SDS011;39307;52.870;13.660;2024-02-15T11:52:50;0.70;;;0.60;;
53411;SDS011;39307;52.870;13.660;2024-02-15T11:55:18;1.13;;;0.90;;
53411;SDS011;39307;52.870;13.660;2024-02-15T11:58:00;0.98;;;0.60;;
53411;SDS011;39307;52.870;13.660;2024-02-15T12:00:28;0.93;;;0.70;;
53411;SDS011;39307;52.870;13.660;2024-02-15T12:02:58;0.90;;;0.70;;
53411;SDS011;39307;52.870;13.660;2024-02-15T12:05:26;0.90;;;0.77;;
53411;SDS011;39307;52.870;13.660;2024-02-15T12:07:54;1.00;;;0.70;;
53411;SDS011;39307;52.870;13.660;2024-02-15T12:10:22;1.05;;;0.70;;
53411;SDS011;39307;52.870;13.660;2024-02-15T12:12:53;1.25;;;0.80;;
53411;SDS011;39307;52.870;13.660;2024-02-15T12:15:20;1.10;;;0.70;;
53411;SDS011;39307;52.870;13.660;2024-02-15T12:17:47;0.90;;;0.60;;
53411;SDS011;39307;52.870;13.660;2024-02-15T12:20:14;0.75;;;0.60;;
53411;SDS011;39307;52.870;13.660;2024-02-15T12:22:46;0.90;;;0.70;;
53411;SDS011;39307;52.870;13.660;2024-02-15T12:25:17;1.00;;;0.70;;
53411;SDS011;39307;52.870;13.660;2024-02-15T12:27:44;1.23;;;0.70;;
53411;SDS011;39307;52.870;13.660;2024-02-15T12:30:17;0.85;;;0.60;;
53411;SDS011;39307;52.870;13.660;2024-02-15T12:32:45;0.73;;;0.60;;
53411;SDS011;39307;52.870;13.660;2024-02-15T12:35:16;1.27;;;0.70;;
53411;SDS011;39307;52.870;13.660;2024-02-15T12:37:45;0.73;;;0.60;;
53411;SDS011;39307;52.870;13.660;2024-02-15T12:40:13;1.10;;;0.80;;
53411;SDS011;39307;52.870;13.660;2024-02-15T12:42:44;0.90;;;0.70;;
53411;SDS011;39307;52.870;13.660;2024-02-15T12:45:15;0.80;;;0.70;;
53411;SDS011;39307;52.870;13.660;2024-02-15T12:47:42;1.38;;;0.77;;
53411;SDS011;39307;52.870;13.660;2024-02-15T12:50:19;0.90;;;0.70;;
53411;SDS011;39307;52.870;13.660;2024-02-15T12:52:48;0.70;;;0.52;;
53411;SDS011;39307;52.870;13.660;2024-02-15T12:55:22;0.77;;;0.60;;
53411;SDS011;39307;52.870;13.660;2024-02-15T12:57:50;0.82;;;0.60;;
53411;SDS011;39307;52.870;13.660;2024-02-15T13:00:19;0.80;;;0.60;;
53411;SDS011;39307;52.870;13.660;2024-02-15T13:02:51;1.13;;;0.65;;
53411;SDS011;39307;52.870;13.660;2024-02-15T13:05:17;0.80;;;0.60;;
53411;SDS011;39307;52.870;13.660;2024-02-15T13:07:46;0.82;;;0.65;;
53411;SDS011;39307;52.870;13.660;2024-02-15T13:10:16;0.82;;;0.60;;
53411;SDS011;39307;52.870;13.660;2024-02-15T13:12:44;0.80;;;0.70;;
53411;SDS011;39307;52.870;13.660;2024-02-15T13:15:15;0.70;;;0.60;;
53411;SDS011;39307;52.870;13.660;2024-02-15T13:17:49;1.00;;;0.80;;
53411;SDS011;39307;52.870;13.660;2024-02-15T13:20:16;0.75;;;0.60;;
53411;SDS011;39307;52.870;13.660;2024-02-15T13:22:43;1.17;;;0.80;;
53411;SDS011;39307;52.870;13.660;2024-02-15T13:25:10;0.90;;;0.68;;
53411;SDS011;39307;52.870;13.660;2024-02-15T13:27:37;0.95;;;0.70;;
53411;SDS011;39307;52.870;13.660;2024-02-15T13:30:04;1.05;;;0.70;;
53411;SDS011;39307;52.870;13.660;2024-02-15T13:32:32;0.98;;;0.70;;
53411;SDS011;39307;52.870;13.660;2024-02-15T13:35:01;1.00;;;0.67;;
53411;SDS011;39307;52.870;13.660;2024-02-15T13:37:29;0.82;;;0.60;;
53411;SDS011;39307;52.870;13.660;2024-02-15T13:39:56;0.93;;;0.70;;
53411;SDS011;39307;52.870;13.660;2024-02-15T13:42:23;0.68;;;0.60;;
53411;SDS011;39307;52.870;13.660;2024-02-15T13:44:49;0.90;;;0.70;;
53411;SDS011;39307;52.870;13.660;2024-02-15T13:47:16;1.00;;;0.75;;
53411;SDS011;39307;52.870;13.660;2024-02-15T13:49:43;0.98;;;0.57;;
53411;SDS011;39307;52.870;13.660;2024-02-15T13:52:10;0.80;;;0.70;;
53411;SDS011;39307;52.870;13.660;2024-02-15T13:54:38;1.08;;;0.70;;
53411;SDS011;39307;52.870;13.660;2024-02-15T13:57:05;0.80;;;0.60;;
53411;SDS011;39307;52.870;13.660;2024-02-15T13:59:32;0.90;;;0.60;;
53411;SDS011;39307;52.870;13.660;2024-02-15T14:01:59;1.02;;;0.80;;
53411;SDS011;39307;52.870;13.660;2024-02-15T14:04:26;1.00;;;0.70;;
53411;SDS011;39307;52.870;13.660;2024-02-15T14:06:53;0.98;;;0.70;;
53411;SDS011;39307;52.870;13.660;2024-02-15T14:09:20;0.80;;;0.60;;
53411;SDS011;39307;52.870;13.660;2024-02-15T14:11:46;0.88;;;0.70;;
53411;SDS011;39307;52.870;13.660;2024-02-15T14:14:13;1.10;;;0.70;;
53411;SDS011;39307;52.870;13.660;2024-02-15T14:16:40;0.65;;;0.50;;
53411;SDS011;39307;52.870;13.660;2024-02-15T14:19:07;1.30;;;0.80;;
53411;SDS011;39307;52.870;13.660;2024-02-15T14:21:34;0.80;;;0.60;;
53411;SDS011;39307;52.870;13.660;2024-02-15T14:24:00;1.00;;;0.60;;
53411;SDS011;39307;52.870;13.660;2024-02-15T14:26:30;0.93;;;0.63;;
53411;SDS011;39307;52.870;13.660;2024-02-15T14:28:58;0.90;;;0.60;;
53411;SDS011;39307;52.870;13.660;2024-02-15T14:31:25;0.70;;;0.63;;
53411;SDS011;39307;52.870;13.660;2024-02-15T14:33:52;1.17;;;0.80;;
53411;SDS011;39307;52.870;13.660;2024-02-15T14:36:19;0.90;;;0.65;;
53411;SDS011;39307;52.870;13.660;2024-02-15T14:38:46;0.77;;;0.60;;
53411;SDS011;39307;52.870;13.660;2024-02-15T14:41:12;1.20;;;0.80;;